createdAt,value
2022-10-23T00:01:16.428Z,12.68
2022-10-23T00:03:43.614Z,12.70
2022-10-23T00:06:11.178Z,12.54
2022-10-23T00:08:38.366Z,12.50
2022-10-23T00:11:09.879Z,12.45
2022-10-23T00:13:36.605Z,12.43
2022-10-23T00:16:03.495Z,12.36
2022-10-23T00:18:30.158Z,12.30
2022-10-23T00:20:56.775Z,12.43
2022-10-23T00:23:23.556Z,12.41
2022-10-23T00:25:50.015Z,12.35
2022-10-23T00:28:16.466Z,12.33
2022-10-23T00:30:42.876Z,12.24
2022-10-23T00:33:10.330Z,12.28
2022-10-23T00:35:40.961Z,12.20
2022-10-23T00:38:08.671Z,12.16
2022-10-23T00:40:35.769Z,12.19
2022-10-23T00:43:02.652Z,12.23
2022-10-23T00:45:33.370Z,12.25
2022-10-23T00:48:01.888Z,12.13
2022-10-23T00:50:31.283Z,12.23
2022-10-23T00:53:00.922Z,12.15
2022-10-23T00:55:28.993Z,12.27
2022-10-23T00:57:55.644Z,12.15
2022-10-23T01:00:27.493Z,12.09
2022-10-23T01:02:55.238Z,12.12
2022-10-23T01:05:27.578Z,12.09
2022-10-23T01:08:02.839Z,12.26
2022-10-23T01:10:39.566Z,12.33
2022-10-23T01:13:12.698Z,12.39
2022-10-23T01:15:52.178Z,12.49
2022-10-23T01:18:28.258Z,12.44
2022-10-23T01:21:04.493Z,12.54
2022-10-23T01:23:52.420Z,12.41
2022-10-23T01:26:18.745Z,12.62
2022-10-23T01:28:50.120Z,12.76
2022-10-23T01:31:23.063Z,12.60
2022-10-23T01:33:56.737Z,12.70
2022-10-23T01:36:28.163Z,12.82
2022-10-23T01:39:07.507Z,12.95
2022-10-23T01:41:48.589Z,13.16
2022-10-23T01:44:30.984Z,13.28
2022-10-23T01:46:58.206Z,13.35
2022-10-23T01:49:25.045Z,13.31
2022-10-23T01:51:56.618Z,13.33
2022-10-23T01:54:33.782Z,13.43
2022-10-23T01:57:02.360Z,13.42
2022-10-23T01:59:35.197Z,13.43
2022-10-23T02:02:03.332Z,13.37
2022-10-23T02:04:35.743Z,13.38
2022-10-23T02:07:02.459Z,13.42
2022-10-23T02:09:28.858Z,13.53
2022-10-23T02:12:02.535Z,13.55
2022-10-23T02:14:58.062Z,13.55
2022-10-23T02:17:42.016Z,13.52
2022-10-23T02:20:16.943Z,13.63
2022-10-23T02:22:55.085Z,13.62
2022-10-23T02:25:33.402Z,13.57
2022-10-23T02:28:04.984Z,13.59
2022-10-23T02:30:32.797Z,13.59
2022-10-23T02:33:01.382Z,13.61
2022-10-23T02:35:27.893Z,13.63
2022-10-23T02:37:56.373Z,13.61
2022-10-23T02:40:26.544Z,13.68
2022-10-23T02:43:01.606Z,13.69
2022-10-23T02:45:35.955Z,13.77
2022-10-23T02:48:13.606Z,13.82
2022-10-23T02:51:03.780Z,13.80
2022-10-23T02:53:49.210Z,13.82
2022-10-23T02:56:41.601Z,13.85
2022-10-23T02:59:17.220Z,13.85
2022-10-23T03:01:48.588Z,13.85
2022-10-23T03:04:17.612Z,13.88
2022-10-23T03:06:44.630Z,13.84
2022-10-23T03:09:12.103Z,13.74
2022-10-23T03:11:38.535Z,13.78
2022-10-23T03:14:05.026Z,13.74
2022-10-23T03:16:31.398Z,13.79
2022-10-23T03:18:57.964Z,13.67
2022-10-23T03:21:24.545Z,13.71
2022-10-23T03:23:50.941Z,13.67
2022-10-23T03:26:17.436Z,13.64
2022-10-23T03:28:43.810Z,13.70
2022-10-23T03:31:10.323Z,13.64
2022-10-23T03:33:36.778Z,13.59
2022-10-23T03:36:03.487Z,13.54
2022-10-23T03:38:29.898Z,13.50
2022-10-23T03:40:56.303Z,13.47
2022-10-23T03:43:22.683Z,13.58
2022-10-23T03:45:49.134Z,13.62
2022-10-23T03:48:15.597Z,13.62
2022-10-23T03:50:41.980Z,13.69
2022-10-23T03:53:08.383Z,13.66
2022-10-23T03:55:34.800Z,13.58
2022-10-23T03:58:01.242Z,13.56
2022-10-23T04:00:27.808Z,13.47
2022-10-23T04:02:54.186Z,13.43
2022-10-23T04:05:20.605Z,13.36
2022-10-23T04:07:47.014Z,13.51
2022-10-23T04:10:13.392Z,13.64
2022-10-23T04:12:39.918Z,13.68
2022-10-23T04:15:06.805Z,13.69
2022-10-23T04:17:33.236Z,13.66
2022-10-23T04:19:59.628Z,13.69
2022-10-23T04:22:28.343Z,13.80
2022-10-23T04:24:55.788Z,13.85
2022-10-23T04:27:22.855Z,13.79
2022-10-23T04:29:49.318Z,13.79
2022-10-23T04:32:16.018Z,13.79
2022-10-23T04:34:42.433Z,13.84
2022-10-23T04:37:08.831Z,13.81
2022-10-23T04:39:35.350Z,13.84
2022-10-23T04:42:01.833Z,13.82
2022-10-23T04:44:28.267Z,13.79
2022-10-23T04:46:54.751Z,13.79
2022-10-23T04:49:21.287Z,13.77
2022-10-23T04:51:47.721Z,13.76
2022-10-23T04:54:14.144Z,13.81
2022-10-23T04:56:40.738Z,13.80
2022-10-23T04:59:07.152Z,13.78
2022-10-23T05:01:33.699Z,13.77
2022-10-23T05:04:00.251Z,13.73
2022-10-23T05:06:26.608Z,13.78
2022-10-23T05:08:53.056Z,13.75
2022-10-23T05:11:19.482Z,13.79
2022-10-23T05:13:45.873Z,13.78
2022-10-23T05:16:26.941Z,13.88
2022-10-23T05:18:53.418Z,13.79
2022-10-23T05:21:26.374Z,13.78
2022-10-23T05:23:53.903Z,13.77
2022-10-23T05:26:22.261Z,13.74
2022-10-23T05:28:49.164Z,13.73
2022-10-23T05:31:16.181Z,13.72
2022-10-23T05:33:42.621Z,13.74
2022-10-23T05:36:09.710Z,13.74
2022-10-23T05:38:36.229Z,13.74
2022-10-23T05:41:03.176Z,13.80
2022-10-23T05:43:31.169Z,13.78
2022-10-23T05:45:58.452Z,13.77
2022-10-23T05:48:34.340Z,13.77
2022-10-23T05:51:09.671Z,13.74
2022-10-23T05:53:38.856Z,13.77
2022-10-23T05:56:09.254Z,13.75
2022-10-23T05:58:35.860Z,13.71
2022-10-23T06:01:10.267Z,13.80
2022-10-23T06:03:38.180Z,13.78
2022-10-23T06:06:05.743Z,13.76
2022-10-23T06:08:32.934Z,13.81
2022-10-23T06:11:05.512Z,13.79
2022-10-23T06:13:31.892Z,13.81
2022-10-23T06:15:58.385Z,13.81
2022-10-23T06:18:24.826Z,13.81
2022-10-23T06:20:51.241Z,13.82
2022-10-23T06:23:17.609Z,13.80
2022-10-23T06:25:50.854Z,13.84
2022-10-23T06:28:20.515Z,13.77
2022-10-23T06:30:47.314Z,13.87
2022-10-23T06:33:13.786Z,13.85
2022-10-23T06:35:40.334Z,13.89
2022-10-23T06:38:06.739Z,13.90
2022-10-23T06:40:33.197Z,13.93
2022-10-23T06:42:59.678Z,13.98
2022-10-23T06:45:26.110Z,14.05
2022-10-23T06:47:52.848Z,14.09
2022-10-23T06:50:19.248Z,14.10
2022-10-23T06:52:47.439Z,14.12
2022-10-23T06:55:14.242Z,14.13
2022-10-23T06:57:40.952Z,14.17
2022-10-23T07:00:08.230Z,14.20
2022-10-23T07:02:34.669Z,14.24
2022-10-23T07:05:01.054Z,14.27
2022-10-23T07:07:30.096Z,14.31
2022-10-23T07:09:56.605Z,14.35
2022-10-23T07:12:26.290Z,14.38
2022-10-23T07:14:52.725Z,14.40
2022-10-23T07:17:19.140Z,14.42
2022-10-23T07:19:47.122Z,14.47
2022-10-23T07:22:15.841Z,14.57
2022-10-23T07:24:42.672Z,14.59
2022-10-23T07:27:09.231Z,14.65
2022-10-23T07:29:35.681Z,14.80
2022-10-23T07:32:02.334Z,14.80
2022-10-23T07:34:30.887Z,14.87
2022-10-23T07:36:57.606Z,14.91
2022-10-23T07:39:24.116Z,15.04
2022-10-23T07:41:50.609Z,15.04
2022-10-23T07:44:18.271Z,15.14
2022-10-23T07:46:44.614Z,15.26
2022-10-23T07:49:11.304Z,15.34
2022-10-23T07:51:37.680Z,15.40
2022-10-23T07:54:04.148Z,15.61
2022-10-23T07:56:33.544Z,15.76
2022-10-23T07:58:59.967Z,15.92
2022-10-23T08:01:32.372Z,16.14
2022-10-23T08:03:59.765Z,16.47
2022-10-23T08:06:26.272Z,16.62
2022-10-23T08:08:52.867Z,16.63
2022-10-23T08:11:27.019Z,16.98
2022-10-23T08:13:55.328Z,17.24
2022-10-23T08:16:25.771Z,17.38
2022-10-23T08:18:52.387Z,17.74
2022-10-23T08:21:19.175Z,18.02
2022-10-23T08:23:45.831Z,18.04
2022-10-23T08:26:14.121Z,18.72
2022-10-23T08:28:40.666Z,18.98
2022-10-23T08:31:09.494Z,18.79
2022-10-23T08:33:36.606Z,18.57
2022-10-23T08:36:03.482Z,18.51
2022-10-23T08:38:29.948Z,18.46
2022-10-23T08:40:56.343Z,18.54
2022-10-23T08:43:41.562Z,18.83
2022-10-23T08:46:17.583Z,18.55
2022-10-23T08:49:26.883Z,18.24
2022-10-23T08:51:56.366Z,18.28
2022-10-23T08:54:44.401Z,18.24
2022-10-23T08:57:17.249Z,18.55
2022-10-23T08:59:50.544Z,18.55
2022-10-23T09:02:21.186Z,18.72
2022-10-23T09:04:50.413Z,18.45
2022-10-23T09:07:35.168Z,18.34
2022-10-23T09:10:16.530Z,18.21
2022-10-23T09:12:43.091Z,18.58
2022-10-23T09:15:31.587Z,18.76
2022-10-23T09:18:00.733Z,18.85
2022-10-23T09:20:28.847Z,19.27
2022-10-23T09:22:59.043Z,19.16
2022-10-23T09:25:31.360Z,19.07
2022-10-23T09:28:01.504Z,18.76
2022-10-23T09:30:41.135Z,18.66
2022-10-23T09:33:29.397Z,18.55
2022-10-23T09:36:00.975Z,18.38
2022-10-23T09:38:37.892Z,18.40
2022-10-23T09:41:21.428Z,18.31
2022-10-23T09:43:59.176Z,18.45
2022-10-23T09:46:28.298Z,18.51
2022-10-23T09:49:00.894Z,18.74
2022-10-23T09:51:30.222Z,19.02
2022-10-23T09:54:00.765Z,19.36
2022-10-23T09:56:34.838Z,19.62
2022-10-23T09:59:31.154Z,19.63
2022-10-23T10:02:00.545Z,19.71
2022-10-23T10:04:35.826Z,19.58
2022-10-23T10:07:04.661Z,19.28
2022-10-23T10:09:31.211Z,19.34
2022-10-23T10:12:14.435Z,19.00
2022-10-23T10:15:02.796Z,19.00
2022-10-23T10:17:36.515Z,18.75
2022-10-23T10:20:18.313Z,18.82
2022-10-23T10:22:57.128Z,18.69
2022-10-23T10:25:53.465Z,18.77
2022-10-23T10:28:43.766Z,18.67
2022-10-23T10:31:23.506Z,18.68
2022-10-23T10:34:02.708Z,18.58
2022-10-23T10:36:53.672Z,18.74
2022-10-23T10:39:41.438Z,18.80
2022-10-23T10:42:44.882Z,18.83
2022-10-23T10:45:24.404Z,18.75
2022-10-23T10:48:09.502Z,18.77
2022-10-23T10:50:42.582Z,18.72
2022-10-23T10:53:19.932Z,18.72
2022-10-23T10:55:51.378Z,18.85
2022-10-23T10:58:41.924Z,18.77
2022-10-23T11:01:27.114Z,18.84
2022-10-23T11:04:01.724Z,18.86
2022-10-23T11:06:35.220Z,18.77
2022-10-23T11:09:20.361Z,18.75
2022-10-23T11:11:48.754Z,18.64
2022-10-23T11:14:17.746Z,18.71
2022-10-23T11:16:51.504Z,18.83
2022-10-23T11:19:26.573Z,18.68
2022-10-23T11:22:09.918Z,18.60
2022-10-23T11:24:45.325Z,18.62
2022-10-23T11:27:39.650Z,18.44
2022-10-23T11:30:22.486Z,18.42
2022-10-23T11:33:05.629Z,18.37
2022-10-23T11:35:50.760Z,18.31
2022-10-23T11:38:17.082Z,18.34
2022-10-23T11:43:31.715Z,18.22
2022-10-23T11:45:58.479Z,18.22
2022-10-23T11:48:43.195Z,18.13
2022-10-23T11:51:34.379Z,18.34
2022-10-23T11:54:24.276Z,18.40
2022-10-23T11:57:02.989Z,18.63
2022-10-23T11:59:34.598Z,19.03
2022-10-23T12:02:10.834Z,19.00
2022-10-23T12:04:48.852Z,19.53
2022-10-23T12:07:31.096Z,20.16
2022-10-23T12:10:24.196Z,20.42
2022-10-23T12:13:00.199Z,20.44
2022-10-23T12:15:28.025Z,20.36
2022-10-23T12:18:08.958Z,20.21
2022-10-23T12:20:44.808Z,20.70
2022-10-23T12:23:50.580Z,20.93
2022-10-23T12:26:17.266Z,21.02
2022-10-23T12:29:32.332Z,20.95
2022-10-23T12:32:17.725Z,20.82
2022-10-23T12:35:09.605Z,21.03
2022-10-23T12:37:55.193Z,20.61
2022-10-23T12:40:22.987Z,20.54
2022-10-23T12:42:56.698Z,20.23
2022-10-23T12:45:29.621Z,20.00
2022-10-23T12:47:56.633Z,20.14
2022-10-23T12:50:26.789Z,19.87
2022-10-23T12:52:57.773Z,19.88
2022-10-23T12:55:26.534Z,19.68
2022-10-23T12:57:53.804Z,19.75
2022-10-23T13:00:23.580Z,19.58
2022-10-23T13:03:02.651Z,19.61
2022-10-23T13:05:33.198Z,19.48
2022-10-23T13:08:01.763Z,19.55
2022-10-23T13:10:31.125Z,19.46
2022-10-23T13:13:04.573Z,19.37
2022-10-23T13:15:40.504Z,19.29
2022-10-23T13:18:08.954Z,19.07
2022-10-23T13:20:41.302Z,19.11
2022-10-23T13:23:08.125Z,19.09
2022-10-23T13:25:40.079Z,18.98
2022-10-23T13:28:10.041Z,18.87
2022-10-23T13:30:43.313Z,18.88
2022-10-23T13:33:27.404Z,18.86
2022-10-23T13:36:24.628Z,18.76
2022-10-23T13:39:13.367Z,18.72
2022-10-23T13:41:46.831Z,18.80
2022-10-23T13:44:16.380Z,18.72
2022-10-23T13:46:44.150Z,18.69
2022-10-23T13:49:13.585Z,18.57
2022-10-23T13:51:55.402Z,18.64
2022-10-23T13:54:25.341Z,18.68
2022-10-23T13:56:54.567Z,18.67
2022-10-23T13:59:22.372Z,18.64
2022-10-23T14:01:50.850Z,18.62
2022-10-23T14:04:20.657Z,18.65
2022-10-23T14:06:49.438Z,18.63
2022-10-23T14:09:18.084Z,18.59
2022-10-23T14:11:47.179Z,18.64
2022-10-23T14:14:14.029Z,18.55
2022-10-23T14:16:41.427Z,18.53
2022-10-23T14:19:12.739Z,18.56
2022-10-23T14:21:42.993Z,18.53
2022-10-23T14:24:10.554Z,18.49
2022-10-23T14:26:38.237Z,18.49
2022-10-23T14:29:09.748Z,18.52
2022-10-23T14:31:37.340Z,18.51
2022-10-23T14:34:03.999Z,18.44
2022-10-23T14:36:38.829Z,18.44
2022-10-23T14:39:16.839Z,18.47
2022-10-23T14:41:43.795Z,18.41
2022-10-23T14:44:10.528Z,18.45
2022-10-23T14:46:38.639Z,18.37
2022-10-23T14:49:05.913Z,18.35
2022-10-23T14:51:33.033Z,18.36
2022-10-23T14:54:02.116Z,18.29
2022-10-23T14:56:30.224Z,18.23
2022-10-23T14:59:03.005Z,18.19
2022-10-23T15:01:36.371Z,18.25
2022-10-23T15:04:03.678Z,18.15
2022-10-23T15:06:30.377Z,18.05
2022-10-23T15:08:57.962Z,17.85
2022-10-23T15:11:26.071Z,17.84
2022-10-23T15:13:54.773Z,17.67
2022-10-23T15:16:23.055Z,17.47
2022-10-23T15:18:50.420Z,17.30
2022-10-23T15:21:17.345Z,17.23
2022-10-23T15:23:46.148Z,17.15
2022-10-23T15:26:23.828Z,17.14
2022-10-23T15:28:55.665Z,17.10
2022-10-23T15:31:43.615Z,17.07
2022-10-23T15:34:22.913Z,17.07
2022-10-23T15:37:14.174Z,16.91
2022-10-23T15:39:48.686Z,16.85
2022-10-23T15:42:16.084Z,16.84
2022-10-23T15:47:52.991Z,16.81
2022-10-23T15:50:21.254Z,16.78
2022-10-23T15:52:53.128Z,16.75
2022-10-23T15:55:24.511Z,16.75
2022-10-23T15:58:05.054Z,16.74
2022-10-23T16:03:07.233Z,16.62
2022-10-23T16:05:34.229Z,16.60
2022-10-23T16:08:04.457Z,16.58
2022-10-23T16:10:34.326Z,16.50
2022-10-23T16:13:01.356Z,16.42
2022-10-23T16:15:33.784Z,16.38
2022-10-23T16:18:00.549Z,16.32
2022-10-23T16:20:27.186Z,16.32
2022-10-23T16:22:53.641Z,16.33
2022-10-23T16:25:20.209Z,16.24
2022-10-23T16:27:47.527Z,16.21
2022-10-23T16:30:14.684Z,16.25
2022-10-23T16:32:41.398Z,16.21
2022-10-23T16:35:11.014Z,16.25
2022-10-23T16:37:39.493Z,16.28
2022-10-23T16:40:06.517Z,16.23
2022-10-23T16:42:33.333Z,16.18
2022-10-23T16:44:59.714Z,16.16
2022-10-23T16:47:26.194Z,16.17
2022-10-23T16:49:52.598Z,16.20
2022-10-23T16:52:19.008Z,16.19
2022-10-23T16:54:45.397Z,16.14
2022-10-23T16:57:11.818Z,16.27
2022-10-23T16:59:38.370Z,16.14
2022-10-23T17:02:04.957Z,16.12
2022-10-23T17:04:31.564Z,16.10
2022-10-23T17:06:58.034Z,16.07
2022-10-23T17:09:26.449Z,15.98
2022-10-23T17:11:54.095Z,15.92
2022-10-23T17:14:21.228Z,15.94
2022-10-23T17:16:52.451Z,15.96
2022-10-23T17:19:40.190Z,15.96
2022-10-23T17:22:10.650Z,16.00
2022-10-23T17:24:41.750Z,15.99
2022-10-23T17:27:09.011Z,15.99
2022-10-23T17:29:35.932Z,16.02
2022-10-23T17:32:02.650Z,15.96
2022-10-23T17:34:29.080Z,15.97
2022-10-23T17:36:55.641Z,15.91
2022-10-23T17:39:25.498Z,15.88
2022-10-23T17:41:52.668Z,15.99
2022-10-23T17:44:19.575Z,16.05
2022-10-23T17:46:46.172Z,15.94
2022-10-23T17:49:12.975Z,15.91
2022-10-23T17:51:39.861Z,15.93
2022-10-23T17:54:09.058Z,15.93
2022-10-23T17:56:38.336Z,16.09
2022-10-23T17:59:08.279Z,16.02
2022-10-23T18:01:35.530Z,16.03
2022-10-23T18:04:04.968Z,15.95
2022-10-23T18:06:35.078Z,15.88
2022-10-23T18:09:02.748Z,15.92
2022-10-23T18:11:32.756Z,15.93
2022-10-23T18:16:32.079Z,15.96
2022-10-23T18:19:02.097Z,16.00
2022-10-23T18:21:28.903Z,15.99
2022-10-23T18:23:57.987Z,15.90
2022-10-23T18:26:27.150Z,15.97
2022-10-23T18:28:57.101Z,15.94
2022-10-23T18:31:25.469Z,15.91
2022-10-23T18:34:01.365Z,15.92
2022-10-23T18:36:32.242Z,15.99
2022-10-23T18:39:01.792Z,15.92
2022-10-23T18:41:32.757Z,15.90
2022-10-23T18:43:59.185Z,15.90
2022-10-23T18:46:25.619Z,15.83
2022-10-23T18:48:52.078Z,15.83
2022-10-23T18:51:27.845Z,15.86
2022-10-23T18:53:54.893Z,15.81
2022-10-23T18:56:24.340Z,15.79
2022-10-23T18:58:52.342Z,15.81
2022-10-23T19:01:20.043Z,15.76
2022-10-23T19:03:46.859Z,15.76
2022-10-23T19:06:14.032Z,15.78
2022-10-23T19:08:42.999Z,15.77
2022-10-23T19:11:11.050Z,15.78
2022-10-23T19:13:39.231Z,15.77
2022-10-23T19:16:12.483Z,15.79
2022-10-23T19:18:42.372Z,15.77
2022-10-23T19:21:09.279Z,15.79
2022-10-23T19:23:37.051Z,15.71
2022-10-23T19:26:08.966Z,15.75
2022-10-23T19:28:46.072Z,15.80
2022-10-23T19:31:13.064Z,15.77
2022-10-23T19:33:39.556Z,15.70
2022-10-23T19:36:11.127Z,15.67
2022-10-23T19:38:41.440Z,15.66
2022-10-23T19:41:08.532Z,15.65
2022-10-23T19:43:35.218Z,15.64
2022-10-23T19:46:05.084Z,15.68
2022-10-23T19:48:34.284Z,15.62
2022-10-23T19:51:00.688Z,15.62
2022-10-23T19:53:27.099Z,15.62
2022-10-23T19:56:02.610Z,15.62
2022-10-23T19:58:29.047Z,15.63
2022-10-23T20:00:55.428Z,15.57
2022-10-23T20:03:21.885Z,15.60
2022-10-23T20:05:48.301Z,15.56
2022-10-23T20:08:14.713Z,15.48
2022-10-23T20:10:46.548Z,15.45
2022-10-23T20:13:19.924Z,15.43
2022-10-23T20:15:47.034Z,15.46
2022-10-23T20:18:13.385Z,15.48
2022-10-23T20:20:41.362Z,15.47
2022-10-23T20:23:07.994Z,15.44
2022-10-23T20:25:34.452Z,15.46
2022-10-23T20:28:00.893Z,15.48
2022-10-23T20:30:27.348Z,15.52
2022-10-23T20:32:53.823Z,15.54
2022-10-23T20:35:20.228Z,15.49
2022-10-23T20:37:46.943Z,15.51
2022-10-23T20:40:13.606Z,15.57
2022-10-23T20:42:40.043Z,15.69
2022-10-23T20:45:06.964Z,15.77
2022-10-23T20:47:33.408Z,15.66
2022-10-23T20:49:59.879Z,15.65
2022-10-23T20:52:29.392Z,15.64
2022-10-23T20:54:55.802Z,15.55
2022-10-23T20:57:22.237Z,15.52
2022-10-23T20:59:48.598Z,15.46
2022-10-23T21:02:15.047Z,15.48
2022-10-23T21:04:41.580Z,15.39
2022-10-23T21:07:10.789Z,15.41
2022-10-23T21:09:38.597Z,15.43
2022-10-23T21:12:06.585Z,15.39
2022-10-23T21:14:33.553Z,15.40
2022-10-23T21:17:00.022Z,15.36
2022-10-23T21:19:26.455Z,15.37
2022-10-23T21:21:54.475Z,15.30
2022-10-23T21:24:21.336Z,15.31
2022-10-23T21:26:47.955Z,15.25
2022-10-23T21:29:19.508Z,15.24
2022-10-23T21:32:01.639Z,15.29
2022-10-23T21:34:29.080Z,15.24
2022-10-23T21:39:43.085Z,15.29
2022-10-23T21:42:10.174Z,15.21
2022-10-23T21:44:36.881Z,15.22
2022-10-23T21:47:03.613Z,15.22
2022-10-23T21:49:30.172Z,15.18
2022-10-23T21:51:56.565Z,15.19
2022-10-23T21:54:22.968Z,15.17
2022-10-23T21:56:51.769Z,15.21
2022-10-23T21:59:20.732Z,15.29
2022-10-23T22:01:50.261Z,15.19
2022-10-23T22:04:18.675Z,15.19
2022-10-23T22:06:47.187Z,15.21
2022-10-23T22:09:16.296Z,15.24
2022-10-23T22:11:43.193Z,15.21
2022-10-23T22:14:09.577Z,15.12
2022-10-23T22:16:36.318Z,15.20
2022-10-23T22:19:02.935Z,15.14
2022-10-23T22:21:30.473Z,15.15
2022-10-23T22:23:58.733Z,15.18
2022-10-23T22:26:35.785Z,15.19
2022-10-23T22:29:06.446Z,15.27
2022-10-23T22:31:34.166Z,15.19
2022-10-23T22:34:13.129Z,15.16
2022-10-23T22:36:48.730Z,15.14
2022-10-23T22:39:15.262Z,15.20
2022-10-23T22:41:43.253Z,15.19
2022-10-23T22:44:11.716Z,15.18
2022-10-23T22:46:38.537Z,15.12
2022-10-23T22:51:32.304Z,15.26
2022-10-23T22:53:59.576Z,15.24
2022-10-23T22:56:29.233Z,15.32
2022-10-23T22:58:57.030Z,15.23
2022-10-23T23:01:33.456Z,15.21
2022-10-23T23:04:08.879Z,15.28
2022-10-23T23:06:47.434Z,15.28
2022-10-23T23:09:17.936Z,15.28
2022-10-23T23:11:51.561Z,15.31
2022-10-23T23:14:23.043Z,15.29
2022-10-23T23:16:51.521Z,15.29
2022-10-23T23:19:17.914Z,15.32
2022-10-23T23:21:44.287Z,15.29
2022-10-23T23:24:11.840Z,15.34
2022-10-23T23:26:38.223Z,15.33
2022-10-23T23:29:04.755Z,15.40
2022-10-23T23:31:31.462Z,15.37
2022-10-23T23:33:57.906Z,15.33
2022-10-23T23:36:26.470Z,15.40
2022-10-23T23:38:53.430Z,15.36
2022-10-23T23:41:21.205Z,15.41
2022-10-23T23:43:47.757Z,15.42
2022-10-23T23:46:14.914Z,15.34
2022-10-23T23:48:47.082Z,15.28
2022-10-23T23:51:18.514Z,15.26
2022-10-23T23:53:44.904Z,15.26
2022-10-23T23:56:11.308Z,15.37
2022-10-23T23:58:37.896Z,15.31
